createdAt,value
2017-11-18T00:00:00.127Z,101484.19
2017-11-18T00:02:25.943Z,101490.30
2017-11-18T00:04:51.776Z,101475.36
2017-11-18T00:07:17.574Z,101476.06
2017-11-18T00:09:43.681Z,101471.37
2017-11-18T00:12:09.499Z,101471.51
2017-11-18T00:14:35.317Z,101464.16
2017-11-18T00:17:01.155Z,101455.23
2017-11-18T00:19:26.965Z,101442.24
2017-11-18T00:21:53.678Z,101444.02
2017-11-18T00:24:19.508Z,101439.28
2017-11-18T00:26:45.309Z,101444.05
2017-11-18T00:29:11.114Z,101443.58
2017-11-18T00:31:36.941Z,101437.35
2017-11-18T00:34:02.737Z,101437.41
2017-11-18T00:36:28.545Z,101436.54
2017-11-18T00:38:55.248Z,101445.02
2017-11-18T00:41:21.050Z,101441.88
2017-11-18T00:43:46.850Z,101444.91
2017-11-18T00:46:12.673Z,101443.03
2017-11-18T00:48:38.482Z,101441.45
2017-11-18T00:51:04.662Z,101441.04
2017-11-18T00:53:30.478Z,101442.63
2017-11-18T00:55:56.281Z,101441.32
2017-11-18T00:58:22.402Z,101437.45
2017-11-18T01:00:48.232Z,101440.66
2017-11-18T01:03:14.054Z,101428.17
2017-11-18T01:05:40.063Z,101422.75
2017-11-18T01:08:05.869Z,101408.91
2017-11-18T01:10:31.686Z,101407.95
2017-11-18T01:12:57.519Z,101400.22
2017-11-18T01:15:23.335Z,101389.56
2017-11-18T01:17:50.450Z,101399.69
2017-11-18T01:20:16.618Z,101396.81
2017-11-18T01:22:42.439Z,101392.55
2017-11-18T01:25:08.242Z,101379.92
2017-11-18T01:27:34.078Z,101371.80
2017-11-18T01:29:59.901Z,101371.95
2017-11-18T01:32:25.765Z,101358.42
2017-11-18T01:34:51.590Z,101358.42
2017-11-18T01:37:17.405Z,101360.95
2017-11-18T01:39:43.208Z,101341.16
2017-11-18T01:42:09.285Z,101345.98
2017-11-18T01:44:35.102Z,101358.17
2017-11-18T01:47:00.908Z,101353.19
2017-11-18T01:49:26.746Z,101342.19
2017-11-18T01:51:52.540Z,101342.60
2017-11-18T01:54:18.333Z,101342.79
2017-11-18T01:56:44.175Z,101333.35
2017-11-18T01:59:10.000Z,101327.47
2017-11-18T02:01:35.854Z,101324.59
2017-11-18T02:04:01.696Z,101325.28
2017-11-18T02:06:27.521Z,101320.83
2017-11-18T02:08:53.345Z,101321.70
2017-11-18T02:11:19.138Z,101309.19
2017-11-18T02:13:44.954Z,101297.19
2017-11-18T02:16:11.147Z,101305.29
2017-11-18T02:18:36.964Z,101295.07
2017-11-18T02:21:02.793Z,101282.70
2017-11-18T02:23:28.618Z,101282.39
2017-11-18T02:25:54.438Z,101275.91
2017-11-18T02:28:20.264Z,101269.36
2017-11-18T02:30:46.467Z,101257.44
2017-11-18T02:33:12.299Z,101255.47
2017-11-18T02:35:38.132Z,101254.31
2017-11-18T02:38:03.980Z,101252.17
2017-11-18T02:40:29.792Z,101245.12
2017-11-18T02:42:55.603Z,101228.59
2017-11-18T02:45:21.430Z,101234.35
2017-11-18T02:47:47.272Z,101239.88
2017-11-18T02:50:13.079Z,101236.13
2017-11-18T02:52:38.910Z,101229.30
2017-11-18T02:55:04.718Z,101228.27
2017-11-18T02:57:30.537Z,101210.41
2017-11-18T02:59:56.356Z,101209.95
2017-11-18T03:02:22.177Z,101201.51
2017-11-18T03:04:47.982Z,101200.53
2017-11-18T03:07:13.811Z,101189.87
2017-11-18T03:09:39.629Z,101178.34
2017-11-18T03:12:05.436Z,101175.19
2017-11-18T03:14:31.284Z,101181.69
2017-11-18T03:16:57.133Z,101172.06
2017-11-18T03:19:22.958Z,101159.60
2017-11-18T03:21:48.819Z,101156.89
2017-11-18T03:24:14.638Z,101154.01
2017-11-18T03:26:40.446Z,101146.64
2017-11-18T03:29:06.289Z,101149.63
2017-11-18T03:31:32.105Z,101139.92
2017-11-18T03:33:57.930Z,101132.72
2017-11-18T03:36:23.751Z,101121.72
2017-11-18T03:38:49.569Z,101116.14
2017-11-18T03:41:15.388Z,101116.25
2017-11-18T03:43:41.190Z,101118.91
2017-11-18T03:46:07.004Z,101105.41
2017-11-18T03:48:33.470Z,101101.73
2017-11-18T03:50:59.294Z,101103.41
2017-11-18T03:53:25.101Z,101093.92
2017-11-18T03:55:51.190Z,101085.16
2017-11-18T03:58:17.012Z,101079.58
2017-11-18T04:00:48.930Z,101080.45
2017-11-18T04:03:14.782Z,101079.25
2017-11-18T04:05:40.604Z,101076.17
2017-11-18T04:08:06.407Z,101065.17
2017-11-18T04:10:32.255Z,101062.99
2017-11-18T04:12:58.067Z,101070.64
2017-11-18T04:15:23.909Z,101054.43
2017-11-18T04:17:49.729Z,101057.31
2017-11-18T04:20:22.422Z,101054.22
2017-11-18T04:22:48.246Z,101050.59
2017-11-18T04:25:14.083Z,101045.98
2017-11-18T04:27:39.894Z,101046.69
2017-11-18T04:30:05.709Z,101047.16
2017-11-18T04:32:32.443Z,101033.03
2017-11-18T04:34:58.272Z,101032.84
2017-11-18T04:37:24.084Z,101030.66
2017-11-18T04:39:49.954Z,101019.14
2017-11-18T04:42:15.835Z,101022.70
2017-11-18T04:44:41.684Z,101008.78
2017-11-18T04:47:07.508Z,101006.84
2017-11-18T04:49:33.841Z,100985.27
2017-11-18T04:51:59.713Z,100997.52
2017-11-18T04:54:25.524Z,100994.53
2017-11-18T04:56:51.354Z,100984.08
2017-11-18T04:59:17.184Z,100989.27
2017-11-18T05:01:43.306Z,100976.16
2017-11-18T05:04:09.119Z,100967.53
2017-11-18T05:06:34.937Z,100970.89
2017-11-18T05:09:00.763Z,100956.48
2017-11-18T05:11:26.842Z,100966.98
2017-11-18T05:13:52.657Z,100957.47
2017-11-18T05:16:18.507Z,100954.17
2017-11-18T05:18:44.357Z,100952.78
2017-11-18T05:21:10.206Z,100941.05
2017-11-18T05:23:36.012Z,100943.13
2017-11-18T05:26:01.884Z,100937.25
2017-11-18T05:28:27.703Z,100931.63
2017-11-18T05:30:53.514Z,100934.49
2017-11-18T05:33:19.350Z,100940.44
2017-11-18T05:35:45.173Z,100930.27
2017-11-18T05:38:10.998Z,100924.59
2017-11-18T05:40:37.198Z,100929.52
2017-11-18T05:43:03.038Z,100925.14
2017-11-18T05:45:28.868Z,100925.03
2017-11-18T05:47:54.687Z,100907.55
2017-11-18T05:50:20.496Z,100914.39
2017-11-18T05:52:46.418Z,100905.44
2017-11-18T05:55:12.231Z,100897.27
2017-11-18T05:57:38.096Z,100885.34
2017-11-18T06:00:03.980Z,100886.79
2017-11-18T06:02:29.799Z,100889.05
2017-11-18T06:04:55.607Z,100887.69
2017-11-18T06:07:21.459Z,100877.72
2017-11-18T06:09:47.280Z,100876.65
2017-11-18T06:12:13.094Z,100870.42
2017-11-18T06:14:38.925Z,100866.66
2017-11-18T06:17:04.742Z,100868.77
2017-11-18T06:19:30.543Z,100862.38
2017-11-18T06:21:56.615Z,100861.77
2017-11-18T06:24:22.439Z,100859.48
2017-11-18T06:26:48.249Z,100852.41
2017-11-18T06:29:14.083Z,100842.88
2017-11-18T06:31:39.895Z,100843.17
2017-11-18T06:34:05.705Z,100835.85
2017-11-18T06:36:31.554Z,100840.89
2017-11-18T06:38:57.353Z,100828.30
2017-11-18T06:41:23.157Z,100832.09
2017-11-18T06:43:49.002Z,100825.92
2017-11-18T06:46:14.824Z,100830.90
2017-11-18T06:48:40.674Z,100821.52
2017-11-18T06:51:06.490Z,100825.52
2017-11-18T06:53:32.323Z,100819.84
2017-11-18T06:55:58.188Z,100810.92
2017-11-18T06:58:24.004Z,100813.13
2017-11-18T07:00:49.835Z,100818.08
2017-11-18T07:03:15.686Z,100812.60
2017-11-18T07:05:41.510Z,100809.27
2017-11-18T07:08:07.323Z,100795.06
2017-11-18T07:10:33.195Z,100801.02
2017-11-18T07:12:59.019Z,100793.07
2017-11-18T07:15:24.851Z,100789.28
2017-11-18T07:17:51.048Z,100784.04
2017-11-18T07:20:16.878Z,100779.20
2017-11-18T07:22:42.697Z,100770.34
2017-11-18T07:25:08.617Z,100761.70
2017-11-18T07:27:34.438Z,100760.64
2017-11-18T07:30:00.245Z,100757.77
2017-11-18T07:32:26.365Z,100765.63
2017-11-18T07:34:52.207Z,100760.75
2017-11-18T07:37:18.026Z,100753.91
2017-11-18T07:39:43.835Z,100737.90
2017-11-18T07:42:09.650Z,100751.53
2017-11-18T07:44:35.446Z,100748.80
2017-11-18T07:47:01.629Z,100745.61
2017-11-18T07:49:27.424Z,100733.02
2017-11-18T07:51:53.217Z,100725.41
2017-11-18T07:54:19.053Z,100732.98
2017-11-18T07:56:44.858Z,100720.16
2017-11-18T07:59:10.668Z,100711.11
2017-11-18T08:01:36.507Z,100706.05
2017-11-18T08:04:02.339Z,100700.28
2017-11-18T08:06:28.167Z,100708.92
2017-11-18T08:08:54.137Z,100719.98
2017-11-18T08:11:19.937Z,100710.04
2017-11-18T08:13:45.752Z,100710.98
2017-11-18T08:16:11.559Z,100701.84
2017-11-18T08:18:37.414Z,100687.26
2017-11-18T08:21:03.204Z,100690.78
2017-11-18T08:23:29.004Z,100704.73
2017-11-18T08:25:55.007Z,100686.46
2017-11-18T08:28:20.824Z,100685.59
2017-11-18T08:30:46.649Z,100673.53
2017-11-18T08:33:12.503Z,100659.62
2017-11-18T08:35:38.318Z,100651.95
2017-11-18T08:38:04.131Z,100650.46
2017-11-18T08:40:29.926Z,100658.67
2017-11-18T08:42:55.743Z,100648.69
2017-11-18T08:45:21.575Z,100644.27
2017-11-18T08:47:47.505Z,100640.30
2017-11-18T08:50:13.349Z,100629.23
2017-11-18T08:52:39.163Z,100635.59
2017-11-18T08:55:04.998Z,100637.52
2017-11-18T08:57:31.122Z,100635.98
2017-11-18T08:59:57.077Z,100597.86
2017-11-18T09:02:22.900Z,100625.20
2017-11-18T09:04:49.258Z,100618.48
2017-11-18T09:07:15.077Z,100607.06
2017-11-18T09:09:40.870Z,100607.11
2017-11-18T09:12:06.865Z,100609.55
2017-11-18T09:14:32.663Z,100607.69
2017-11-18T09:16:58.551Z,100600.88
2017-11-18T09:19:24.376Z,100591.77
2017-11-18T09:21:50.182Z,100580.55
2017-11-18T09:24:16.036Z,100581.98
2017-11-18T09:26:41.866Z,100578.14
2017-11-18T09:29:07.674Z,100573.64
2017-11-18T09:31:33.605Z,100572.58
2017-11-18T09:33:59.409Z,100555.95
2017-11-18T09:36:25.545Z,100558.98
2017-11-18T09:38:51.654Z,100558.69
2017-11-18T09:41:17.520Z,100544.94
2017-11-18T09:43:43.341Z,100545.89
2017-11-18T09:46:09.434Z,100538.78
2017-11-18T09:51:07.896Z,100517.09
2017-11-18T09:53:33.746Z,100517.97
2017-11-18T09:55:59.710Z,100515.82
2017-11-18T09:58:25.539Z,100501.89
2017-11-18T10:00:51.453Z,100499.65
2017-11-18T10:03:17.271Z,100496.33
2017-11-18T10:05:43.078Z,100487.08
2017-11-18T10:08:08.886Z,100476.75
2017-11-18T10:10:34.719Z,100466.70
2017-11-18T10:13:00.545Z,100458.89
2017-11-18T10:15:26.362Z,100445.25
2017-11-18T10:17:52.164Z,100455.25
2017-11-18T10:20:17.970Z,100441.97
2017-11-18T10:22:43.869Z,100436.57
2017-11-18T10:25:09.712Z,100440.89
2017-11-18T10:27:35.540Z,100442.64
2017-11-18T10:30:01.377Z,100432.30
2017-11-18T10:32:27.198Z,100433.34
2017-11-18T10:34:53.015Z,100425.17
2017-11-18T10:37:18.847Z,100434.19
2017-11-18T10:39:44.636Z,100424.56
2017-11-18T10:42:10.454Z,100436.73
2017-11-18T10:44:36.289Z,100435.50
2017-11-18T10:47:02.102Z,100433.54
2017-11-18T10:49:27.910Z,100434.30
2017-11-18T10:51:53.755Z,100431.24
2017-11-18T10:54:19.573Z,100423.62
2017-11-18T10:56:45.383Z,100412.83
2017-11-18T10:59:12.013Z,100429.55
2017-11-18T11:01:37.812Z,100440.52
2017-11-18T11:04:04.065Z,100428.86
2017-11-18T11:06:29.929Z,100442.23
2017-11-18T11:08:55.730Z,100438.47
2017-11-18T11:11:21.529Z,100449.86
2017-11-18T11:13:47.490Z,100438.36
2017-11-18T11:16:13.347Z,100426.48
2017-11-18T11:18:39.195Z,100429.52
2017-11-18T11:21:05.044Z,100480.21
2017-11-18T11:23:30.845Z,100483.00
2017-11-18T11:25:56.679Z,100490.83
2017-11-18T11:28:22.529Z,100506.73
2017-11-18T11:30:48.367Z,100494.66
2017-11-18T11:33:14.191Z,100503.45
2017-11-18T11:35:40.270Z,100507.11
2017-11-18T11:38:06.093Z,100517.77
2017-11-18T11:40:31.923Z,100518.92
2017-11-18T11:42:57.935Z,100515.66
2017-11-18T11:45:23.753Z,100518.41
2017-11-18T11:47:49.572Z,100521.61
2017-11-18T11:50:15.391Z,100522.16
2017-11-18T11:52:41.193Z,100523.52
2017-11-18T11:55:07.165Z,100516.53
2017-11-18T11:57:32.989Z,100520.23
2017-11-18T11:59:58.791Z,100517.78
2017-11-18T12:02:24.624Z,100515.09
2017-11-18T12:04:50.418Z,100517.11
2017-11-18T12:07:16.250Z,100514.19
2017-11-18T12:09:42.095Z,100525.75
2017-11-18T12:12:07.926Z,100520.41
2017-11-18T12:14:33.748Z,100516.70
2017-11-18T12:16:59.595Z,100518.09
2017-11-18T12:19:25.428Z,100517.56
2017-11-18T12:21:51.257Z,100510.12
2017-11-18T12:24:17.127Z,100510.23
2017-11-18T12:26:42.954Z,100496.40
2017-11-18T12:29:08.797Z,100480.86
2017-11-18T12:31:34.649Z,100466.59
2017-11-18T12:34:00.454Z,100453.37
2017-11-18T12:36:26.268Z,100392.30
2017-11-18T12:38:52.481Z,100400.88
2017-11-18T12:41:18.300Z,100393.02
2017-11-18T12:43:44.095Z,100417.42
2017-11-18T12:46:10.680Z,100423.10
2017-11-18T12:48:37.011Z,100422.93
2017-11-18T12:51:02.898Z,100428.67
2017-11-18T12:53:28.764Z,100434.66
2017-11-18T12:55:55.271Z,100437.50
2017-11-18T12:58:22.163Z,100437.88
2017-11-18T13:00:48.052Z,100428.55
2017-11-18T13:03:13.902Z,100417.77
2017-11-18T13:05:40.212Z,100430.16
2017-11-18T13:08:06.744Z,100420.72
2017-11-18T13:10:32.924Z,100432.11
2017-11-18T13:12:58.792Z,100436.70
2017-11-18T13:15:24.650Z,100445.91
2017-11-18T13:17:50.874Z,100442.90
2017-11-18T13:20:17.045Z,100442.88
2017-11-18T13:22:42.945Z,100444.58
2017-11-18T13:25:08.761Z,100448.69
2017-11-18T13:27:34.603Z,100448.31
2017-11-18T13:30:00.445Z,100449.55
2017-11-18T13:32:26.250Z,100438.66
2017-11-18T13:34:52.069Z,100437.00
2017-11-18T13:37:18.110Z,100444.34
2017-11-18T13:39:43.930Z,100446.22
2017-11-18T13:42:09.737Z,100448.01
2017-11-18T13:44:35.789Z,100443.09
2017-11-18T13:47:01.663Z,100440.77
2017-11-18T13:49:27.514Z,100436.94
2017-11-18T13:51:53.370Z,100449.33
2017-11-18T13:54:19.205Z,100465.06
2017-11-18T13:56:45.013Z,100479.84
2017-11-18T13:59:10.850Z,100477.20
2017-11-18T14:01:36.730Z,100473.55
2017-11-18T14:04:02.591Z,100471.50
2017-11-18T14:06:28.436Z,100466.78
2017-11-18T14:08:54.273Z,100454.95
2017-11-18T14:11:20.130Z,100458.76
2017-11-18T14:13:45.971Z,100454.58
2017-11-18T14:16:11.829Z,100454.23
2017-11-18T14:18:37.991Z,100449.54
2017-11-18T14:21:05.018Z,100456.83
2017-11-18T14:23:31.131Z,100455.73
2017-11-18T14:25:57.055Z,100464.92
2017-11-18T14:28:23.278Z,100467.39
2017-11-18T14:30:49.111Z,100464.44
2017-11-18T14:33:15.666Z,100469.89
2017-11-18T14:35:42.395Z,100470.14
2017-11-18T14:38:09.259Z,100469.59
2017-11-18T14:40:35.646Z,100474.00
2017-11-18T14:43:01.677Z,100470.25
2017-11-18T14:45:28.591Z,100465.66
2017-11-18T14:47:55.070Z,100463.24
2017-11-18T14:50:20.952Z,100464.40
2017-11-18T14:52:47.022Z,100460.73
2017-11-18T14:55:13.207Z,100463.08
2017-11-18T14:57:39.210Z,100467.44
2017-11-18T15:00:06.098Z,100460.86
2017-11-18T15:02:33.877Z,100465.45
2017-11-18T15:05:01.181Z,100456.44
2017-11-18T15:07:27.274Z,100464.88
2017-11-18T15:09:53.242Z,100468.75
2017-11-18T15:12:20.042Z,100459.22
2017-11-18T15:14:52.157Z,100464.02
2017-11-18T15:20:21.112Z,100461.73
2017-11-18T15:22:52.652Z,100455.41
2017-11-18T15:25:24.953Z,100449.27
2017-11-18T15:27:57.234Z,100443.54
2017-11-18T15:30:35.169Z,100450.94
2017-11-18T15:33:18.163Z,100449.88
2017-11-18T15:35:45.985Z,100449.88
2017-11-18T15:38:18.039Z,100451.00
2017-11-18T15:40:43.887Z,100453.10
2017-11-18T15:43:11.538Z,100441.90
2017-11-18T15:45:40.502Z,100451.61
2017-11-18T15:48:12.587Z,100449.61
2017-11-18T15:50:55.416Z,100450.56
2017-11-18T15:53:21.246Z,100447.18
2017-11-18T15:55:53.024Z,100442.77
2017-11-18T15:58:30.637Z,100437.52
2017-11-18T16:01:02.534Z,100442.91
2017-11-18T16:03:28.382Z,100443.48
2017-11-18T16:05:54.283Z,100442.09
2017-11-18T16:08:20.115Z,100444.03
2017-11-18T16:10:45.974Z,100445.28
2017-11-18T16:13:11.816Z,100448.25
2017-11-18T16:15:37.639Z,100452.12
2017-11-18T16:18:03.483Z,100457.00
2017-11-18T16:23:07.395Z,100446.81
2017-11-18T16:25:33.234Z,100444.03
2017-11-18T16:27:59.043Z,100440.43
2017-11-18T16:30:24.969Z,100445.88
2017-11-18T16:32:50.789Z,100445.91
2017-11-18T16:35:16.608Z,100452.78
2017-11-18T16:37:42.808Z,100453.05
2017-11-18T16:40:08.620Z,100447.33
2017-11-18T16:42:34.430Z,100447.97
2017-11-18T16:45:00.585Z,100454.86
2017-11-18T16:47:26.415Z,100454.89
2017-11-18T16:49:52.329Z,100452.84
2017-11-18T16:52:18.424Z,100462.34
2017-11-18T16:54:44.580Z,100463.84
2017-11-18T16:57:10.400Z,100463.70
2017-11-18T16:59:36.222Z,100468.38
2017-11-18T17:02:02.069Z,100468.81
2017-11-18T17:04:28.000Z,100474.02
2017-11-18T17:06:55.202Z,100473.20
2017-11-18T17:09:21.138Z,100473.11
2017-11-18T17:11:48.337Z,100479.81
2017-11-18T17:14:15.126Z,100482.52
2017-11-18T17:16:40.962Z,100476.03
2017-11-18T17:19:06.905Z,100479.05
2017-11-18T17:21:33.509Z,100469.03
2017-11-18T17:23:59.644Z,100465.68
2017-11-18T17:26:25.578Z,100468.97
2017-11-18T17:28:51.395Z,100470.63
2017-11-18T17:31:17.420Z,100464.16
2017-11-18T17:33:44.077Z,100466.15
2017-11-18T17:36:13.031Z,100470.16
2017-11-18T17:38:38.911Z,100469.55
2017-11-18T17:41:05.869Z,100460.06
2017-11-18T17:43:39.272Z,100465.52
2017-11-18T17:46:05.308Z,100453.80
2017-11-18T17:48:31.155Z,100449.77
2017-11-18T17:50:57.394Z,100455.35
2017-11-18T17:53:24.938Z,100446.38
2017-11-18T17:55:51.710Z,100446.48
2017-11-18T17:58:18.262Z,100443.23
2017-11-18T18:00:44.932Z,100439.04
2017-11-18T18:03:12.749Z,100443.14
2017-11-18T18:05:39.396Z,100448.98
2017-11-18T18:08:06.416Z,100450.13
2017-11-18T18:10:33.073Z,100451.23
2017-11-18T18:12:59.642Z,100452.47
2017-11-18T18:15:26.447Z,100446.48
2017-11-18T18:17:53.377Z,100456.80
2017-11-18T18:20:19.970Z,100447.27
2017-11-18T18:22:47.301Z,100445.28
2017-11-18T18:25:13.760Z,100446.47
2017-11-18T18:27:40.621Z,100451.28
2017-11-18T18:30:06.455Z,100448.59
2017-11-18T18:32:32.321Z,100443.00
2017-11-18T18:34:59.048Z,100438.62
2017-11-18T18:37:26.645Z,100439.17
2017-11-18T18:39:53.080Z,100435.88
2017-11-18T18:42:20.070Z,100444.89
2017-11-18T18:44:46.333Z,100437.30
2017-11-18T18:47:12.876Z,100431.71
2017-11-18T18:49:39.708Z,100435.49
2017-11-18T18:52:06.347Z,100435.34
2017-11-18T18:54:32.209Z,100442.27
2017-11-18T18:56:59.276Z,100439.67
2017-11-18T18:59:25.081Z,100444.80
2017-11-18T19:01:51.627Z,100449.25
2017-11-18T19:04:18.207Z,100465.05
2017-11-18T19:06:44.292Z,100468.31
2017-11-18T19:09:10.170Z,100480.31
2017-11-18T19:11:35.995Z,100477.95
2017-11-18T19:14:01.858Z,100472.53
2017-11-18T19:16:27.713Z,100468.64
2017-11-18T19:18:53.786Z,100476.94
2017-11-18T19:21:19.654Z,100469.32
2017-11-18T19:23:45.635Z,100456.25
2017-11-18T19:26:11.469Z,100460.28
2017-11-18T19:28:37.296Z,100454.27
2017-11-18T19:31:03.251Z,100450.48
2017-11-18T19:33:29.072Z,100459.49
2017-11-18T19:35:54.926Z,100456.32
2017-11-18T19:38:20.882Z,100459.72
2017-11-18T19:40:46.794Z,100458.13
2017-11-18T19:43:12.608Z,100451.70
2017-11-18T19:45:39.376Z,100453.45
2017-11-18T19:48:05.238Z,100436.48
2017-11-18T19:50:31.693Z,100443.56
2017-11-18T19:52:57.908Z,100448.71
2017-11-18T19:55:24.695Z,100430.80
2017-11-18T19:57:50.648Z,100431.31
2017-11-18T20:00:16.931Z,100434.41
2017-11-18T20:02:42.981Z,100431.33
2017-11-18T20:05:09.010Z,100440.31
2017-11-18T20:07:35.092Z,100434.36
2017-11-18T20:10:01.539Z,100430.80
2017-11-18T20:12:27.673Z,100427.03
2017-11-18T20:14:53.801Z,100420.37
2017-11-18T20:17:20.097Z,100424.05
2017-11-18T20:19:46.337Z,100410.24
2017-11-18T20:22:13.012Z,100409.03
2017-11-18T20:24:39.959Z,100414.92
2017-11-18T20:27:06.713Z,100414.74
2017-11-18T20:29:32.608Z,100426.13
2017-11-18T20:31:58.409Z,100412.45
2017-11-18T20:34:24.238Z,100419.34
2017-11-18T20:36:50.078Z,100414.00
2017-11-18T20:39:15.931Z,100425.83
2017-11-18T20:41:42.080Z,100418.97
2017-11-18T20:44:08.279Z,100420.86
2017-11-18T20:46:34.332Z,100421.94
2017-11-18T20:49:00.179Z,100421.20
2017-11-18T20:51:26.007Z,100414.84
2017-11-18T20:53:52.458Z,100422.41
2017-11-18T20:56:18.908Z,100415.89
2017-11-18T20:58:44.984Z,100430.61
2017-11-18T21:01:10.785Z,100428.55
2017-11-18T21:03:36.601Z,100421.22
2017-11-18T21:06:02.452Z,100428.00
2017-11-18T21:08:28.254Z,100413.77
2017-11-18T21:10:54.077Z,100422.08
2017-11-18T21:13:19.919Z,100416.61
2017-11-18T21:15:45.955Z,100431.77
2017-11-18T21:18:11.782Z,100434.14
2017-11-18T21:20:37.946Z,100439.19
2017-11-18T21:23:04.569Z,100446.44
2017-11-18T21:25:31.198Z,100440.79
2017-11-18T21:27:57.627Z,100426.30
2017-11-18T21:30:23.466Z,100432.14
2017-11-18T21:32:49.287Z,100415.83
2017-11-18T21:35:15.934Z,100407.52
2017-11-18T21:37:42.508Z,100398.12
2017-11-18T21:40:08.395Z,100401.97
2017-11-18T21:42:34.503Z,100411.27
2017-11-18T21:45:01.202Z,100418.97
2017-11-18T21:47:27.446Z,100420.70
2017-11-18T21:49:53.339Z,100423.77
2017-11-18T21:52:19.574Z,100428.56
2017-11-18T21:54:46.078Z,100419.38
2017-11-18T21:57:11.910Z,100413.31
2017-11-18T21:59:37.772Z,100405.84
2017-11-18T22:02:04.313Z,100399.02
2017-11-18T22:04:30.177Z,100403.44
2017-11-18T22:06:56.721Z,100404.78
2017-11-18T22:09:23.095Z,100404.53
2017-11-18T22:11:48.992Z,100399.02
2017-11-18T22:14:16.077Z,100384.30
2017-11-18T22:16:41.898Z,100387.38
2017-11-18T22:19:07.791Z,100382.37
2017-11-18T22:21:34.506Z,100377.83
2017-11-18T22:24:01.413Z,100378.44
2017-11-18T22:26:27.317Z,100372.49
2017-11-18T22:28:53.146Z,100356.53
2017-11-18T22:31:18.983Z,100366.54
2017-11-18T22:33:44.858Z,100362.01
2017-11-18T22:36:10.673Z,100363.30
2017-11-18T22:38:36.491Z,100354.12
2017-11-18T22:41:02.646Z,100349.59
2017-11-18T22:43:28.466Z,100358.80
2017-11-18T22:45:54.279Z,100351.33
2017-11-18T22:48:20.293Z,100341.20
2017-11-18T22:50:46.203Z,100350.09
2017-11-18T22:53:12.021Z,100338.84
2017-11-18T22:55:37.861Z,100349.03
2017-11-18T22:58:03.678Z,100346.88
2017-11-18T23:00:40.417Z,100326.32
2017-11-18T23:03:06.226Z,100311.04
2017-11-18T23:05:32.035Z,100307.75
2017-11-18T23:07:57.884Z,100311.09
2017-11-18T23:10:24.090Z,100303.83
2017-11-18T23:12:49.888Z,100303.36
2017-11-18T23:15:15.720Z,100297.20
2017-11-18T23:17:41.568Z,100284.20
2017-11-18T23:20:07.403Z,100274.53
2017-11-18T23:22:33.226Z,100269.61
2017-11-18T23:24:59.042Z,100272.88
2017-11-18T23:27:25.173Z,100282.12
2017-11-18T23:29:50.997Z,100289.01
2017-11-18T23:32:17.167Z,100281.19
2017-11-18T23:34:43.423Z,100274.78
2017-11-18T23:37:09.533Z,100278.14
2017-11-18T23:39:35.339Z,100261.55
2017-11-18T23:42:01.162Z,100255.92
2017-11-18T23:44:26.978Z,100258.56
2017-11-18T23:46:52.801Z,100259.95
2017-11-18T23:49:18.791Z,100254.96
2017-11-18T23:51:44.600Z,100276.12
2017-11-18T23:54:10.497Z,100268.12
2017-11-18T23:56:36.348Z,100259.83
2017-11-18T23:59:02.563Z,100268.52
